Time;durP1;ratioP1;P1;durP2;ratioP2;P2;SDS_P1;SDS_P2;PMS_P1;PMS_P2;Temp;Humidity;BMP_temperature;BMP_pressure;BME280_temperature;BME280_humidity;BME280_pressure;Samples;Min_cycle;Max_cycle;Signal;HPM_P1;HPM_P2
2022/08/02 00:00:50;;;;;;;0.10;0.10;;;13.10;99.90;;;;;;4996382;28;20974;-91
2022/08/02 00:03:16;;;;;;;0.10;0.10;;;13.00;99.90;;;;;;5000836;28;20657;-90
2022/08/02 00:05:42;;;;;;;0.10;0.10;;;13.10;99.90;;;;;;5003934;28;20191;-92
2022/08/02 00:08:07;;;;;;;0.10;0.10;;;13.20;99.90;;;;;;5003653;28;20299;-92
2022/08/02 00:10:33;;;;;;;0.10;0.10;;;12.90;99.90;;;;;;5008783;28;20283;-93
2022/08/02 00:12:58;;;;;;;0.10;0.10;;;12.80;99.90;;;;;;5006948;28;20193;-91
2022/08/02 00:15:24;;;;;;;0.10;0.10;;;12.70;99.90;;;;;;5021761;28;20224;-90
2022/08/02 00:17:50;;;;;;;0.10;0.10;;;12.60;99.90;;;;;;5007136;28;20208;-92
2022/08/02 00:20:15;;;;;;;0.10;0.10;;;12.60;99.90;;;;;;5021584;28;20467;-92
2022/08/02 00:22:41;;;;;;;0.10;0.10;;;12.60;99.90;;;;;;5024619;28;20203;-92
2022/08/02 00:25:06;;;;;;;0.10;0.10;;;12.60;99.90;;;;;;5009690;28;20187;-93
2022/08/02 00:27:32;;;;;;;0.10;0.10;;;12.70;99.90;;;;;;5016796;28;20188;-92
2022/08/02 00:29:57;;;;;;;0.20;0.20;;;12.60;99.90;;;;;;5014874;28;20184;-92
2022/08/02 00:32:23;;;;;;;0.10;0.10;;;12.50;99.90;;;;;;5023277;28;20206;-92
2022/08/02 00:34:49;;;;;;;0.10;0.10;;;12.40;99.90;;;;;;5027199;28;20210;-92
2022/08/02 00:37:15;;;;;;;0.10;0.10;;;12.30;99.90;;;;;;5018661;28;20199;-93
2022/08/02 00:39:43;;;;;;;0.10;0.10;;;12.30;99.90;;;;;;5024723;28;20192;-93
2022/08/02 00:42:09;;;;;;;0.10;0.10;;;12.30;99.90;;;;;;5020266;28;20776;-92
2022/08/02 00:44:35;;;;;;;0.10;0.10;;;12.20;99.90;;;;;;5013923;28;20506;-92
2022/08/02 00:47:00;;;;;;;0.10;0.10;;;12.10;99.90;;;;;;5023384;28;20191;-92
2022/08/02 00:49:26;;;;;;;0.10;0.10;;;12.10;99.90;;;;;;5022158;28;20553;-92
2022/08/02 00:51:52;;;;;;;0.13;0.13;;;12.00;99.90;;;;;;5024378;28;20220;-92
2022/08/02 00:54:17;;;;;;;0.20;0.20;;;12.00;99.90;;;;;;5020424;28;20461;-93
2022/08/02 00:56:43;;;;;;;0.20;0.20;;;12.00;99.90;;;;;;5028132;28;20192;-93
2022/08/02 00:59:08;;;;;;;0.20;0.20;;;12.30;99.90;;;;;;5029487;28;20591;-93
2022/08/02 01:01:37;;;;;;;0.20;0.20;;;12.20;99.90;;;;;;5023403;28;20663;-93
2022/08/02 01:04:13;;;;;;;0.20;0.20;;;12.10;99.90;;;;;;5019065;28;20255;-92
2022/08/02 01:06:40;;;;;;;0.20;0.20;;;12.00;99.90;;;;;;5034500;28;20530;-92
2022/08/02 01:09:06;;;;;;;0.20;0.20;;;12.00;99.90;;;;;;5014617;28;20546;-93
2022/08/02 01:11:33;;;;;;;0.20;0.20;;;11.90;99.90;;;;;;5032555;28;20525;-93
2022/08/02 01:14:07;;;;;;;0.20;0.20;;;11.80;99.90;;;;;;5023502;28;20466;-92
2022/08/02 01:16:38;;;;;;;0.10;0.10;;;11.90;99.90;;;;;;5014367;28;20482;-93
2022/08/02 01:19:38;;;;;;;0.20;0.20;;;11.80;99.90;;;;;;5024839;28;20526;-93
2022/08/02 01:22:28;;;;;;;0.20;0.20;;;11.70;99.90;;;;;;5003465;28;21135;-93
2022/08/02 01:25:21;;;;;;;0.10;0.10;;;11.80;99.90;;;;;;5019044;28;20444;-93
2022/08/02 01:28:28;;;;;;;0.20;0.20;;;11.70;99.90;;;;;;5027496;28;20435;-93
2022/08/02 01:31:00;;;;;;;0.20;0.20;;;11.60;99.90;;;;;;4973915;28;20461;-92
2022/08/02 01:33:42;;;;;;;0.10;0.10;;;11.70;99.90;;;;;;5027459;28;20450;-93
2022/08/02 01:36:11;;;;;;;0.20;0.20;;;11.70;99.90;;;;;;5019154;28;20485;-92
2022/08/02 01:38:42;;;;;;;0.20;0.20;;;11.80;99.90;;;;;;5024237;28;20438;-93
2022/08/02 01:41:11;;;;;;;0.20;0.20;;;11.70;99.90;;;;;;5013727;28;20444;-93
2022/08/02 01:43:39;;;;;;;0.20;0.20;;;11.70;99.90;;;;;;5016737;28;20945;-92
2022/08/02 01:46:05;;;;;;;0.20;0.20;;;11.50;99.90;;;;;;5012768;28;20445;-93
2022/08/02 01:48:33;;;;;;;0.20;0.20;;;11.60;99.90;;;;;;5013261;28;20447;-92
2022/08/02 01:51:00;;;;;;;0.20;0.20;;;11.60;99.90;;;;;;5025521;28;20456;-93
2022/08/02 01:53:28;;;;;;;0.20;0.20;;;11.60;99.90;;;;;;5013046;28;20542;-93
2022/08/02 01:55:58;;;;;;;0.20;0.20;;;11.50;99.90;;;;;;5023637;28;20482;-93
2022/08/02 01:58:27;;;;;;;0.20;0.20;;;11.50;99.90;;;;;;5018604;28;20431;-93
2022/08/02 02:00:55;;;;;;;0.20;0.20;;;11.40;99.90;;;;;;5013028;28;20470;-93
2022/08/02 02:03:23;;;;;;;0.20;0.20;;;11.40;99.90;;;;;;5020269;28;21336;-93
2022/08/02 02:05:52;;;;;;;0.20;0.20;;;11.50;99.90;;;;;;5029764;28;20534;-93
2022/08/02 02:08:49;;;;;;;0.20;0.20;;;11.60;99.90;;;;;;5020093;28;20479;-93
2022/08/02 02:11:15;;;;;;;0.20;0.20;;;11.60;99.90;;;;;;5001388;28;20441;-93
2022/08/02 02:13:41;;;;;;;0.20;0.20;;;11.40;99.90;;;;;;5004725;28;20430;-93
2022/08/02 02:16:08;;;;;;;0.17;0.17;;;11.40;99.90;;;;;;5016377;28;20227;-93
2022/08/02 02:18:39;;;;;;;0.20;0.20;;;11.30;99.90;;;;;;5016736;28;20450;-93
2022/08/02 02:21:05;;;;;;;0.10;0.10;;;11.30;99.90;;;;;;5017687;28;20936;-92
2022/08/02 02:23:30;;;;;;;0.20;0.20;;;11.20;99.90;;;;;;5012103;28;20497;-94
2022/08/02 02:25:57;;;;;;;0.20;0.20;;;11.20;99.90;;;;;;5004235;28;20685;-93
2022/08/02 02:28:29;;;;;;;0.20;0.20;;;11.10;99.90;;;;;;5023800;28;20268;-93
2022/08/02 02:31:08;;;;;;;0.20;0.20;;;10.90;99.90;;;;;;5015730;28;20953;-93
2022/08/02 02:33:39;;;;;;;0.20;0.20;;;10.90;99.90;;;;;;5013426;28;20426;-94
2022/08/02 02:36:07;;;;;;;0.20;0.20;;;11.00;99.90;;;;;;4998780;28;21088;-93
2022/08/02 02:38:34;;;;;;;0.20;0.20;;;11.10;99.90;;;;;;5012222;28;20505;-92
2022/08/02 02:41:02;;;;;;;0.20;0.20;;;11.10;99.90;;;;;;5001988;28;20468;-93
2022/08/02 02:43:29;;;;;;;0.20;0.20;;;11.00;99.90;;;;;;5014097;28;20435;-93
2022/08/02 02:45:55;;;;;;;0.20;0.20;;;10.90;99.90;;;;;;5022965;28;20442;-93
2022/08/02 02:48:21;;;;;;;0.20;0.20;;;11.00;99.90;;;;;;5013998;28;20443;-93
2022/08/02 02:50:48;;;;;;;0.20;0.20;;;11.10;99.90;;;;;;5014082;28;20465;-92
2022/08/02 02:53:17;;;;;;;0.20;0.20;;;11.00;99.90;;;;;;5021484;28;20505;-93
2022/08/02 02:55:43;;;;;;;0.20;0.20;;;11.00;99.90;;;;;;5018531;28;20483;-93
2022/08/02 02:58:09;;;;;;;0.20;0.20;;;10.80;99.90;;;;;;5023630;28;20964;-92
2022/08/02 03:03:19;;;;;;;0.20;0.20;;;10.50;99.90;;;;;;5014500;28;20431;-92
2022/08/02 03:05:45;;;;;;;0.20;0.20;;;10.50;99.90;;;;;;5016189;28;20447;-93
2022/08/02 03:08:11;;;;;;;0.20;0.20;;;10.50;99.90;;;;;;5018392;28;20513;-93
2022/08/02 03:10:37;;;;;;;0.20;0.20;;;10.50;99.90;;;;;;5019230;28;20187;-92
2022/08/02 03:13:03;;;;;;;0.20;0.20;;;10.50;99.90;;;;;;5011890;28;20438;-93
2022/08/02 03:15:29;;;;;;;0.20;0.20;;;10.40;99.90;;;;;;5005290;28;20481;-92
2022/08/02 03:17:55;;;;;;;0.20;0.20;;;10.50;99.90;;;;;;5011573;28;20433;-93
2022/08/02 03:20:24;;;;;;;0.20;0.20;;;10.60;99.90;;;;;;5034873;28;20954;-93
2022/08/02 03:22:50;;;;;;;0.20;0.20;;;10.60;99.90;;;;;;5003194;28;20199;-93
2022/08/02 03:25:16;;;;;;;0.20;0.20;;;10.50;99.90;;;;;;5025185;28;20456;-93
2022/08/02 03:27:42;;;;;;;0.20;0.20;;;10.40;99.90;;;;;;5021013;28;20199;-92
2022/08/02 03:30:10;;;;;;;0.20;0.20;;;10.40;99.90;;;;;;5006223;28;20439;-93
2022/08/02 03:32:38;;;;;;;0.20;0.20;;;10.50;99.90;;;;;;5023644;28;20191;-93
2022/08/02 03:35:06;;;;;;;0.20;0.20;;;10.50;99.90;;;;;;5008892;28;20498;-93
2022/08/02 03:37:33;;;;;;;0.20;0.20;;;10.50;99.90;;;;;;5031411;28;20445;-93
2022/08/02 03:40:00;;;;;;;0.20;0.20;;;10.40;99.90;;;;;;5017686;28;20487;-93
2022/08/02 03:42:27;;;;;;;0.20;0.20;;;10.40;99.90;;;;;;5016771;28;20529;-92
2022/08/02 03:44:54;;;;;;;0.20;0.20;;;10.70;99.90;;;;;;5024617;28;20447;-93
2022/08/02 03:47:21;;;;;;;0.20;0.20;;;10.80;99.90;;;;;;5009075;28;21029;-93
2022/08/02 03:49:47;;;;;;;0.20;0.20;;;10.70;99.90;;;;;;5005712;28;20446;-92
2022/08/02 03:52:14;;;;;;;0.20;0.20;;;10.60;99.90;;;;;;5020957;28;20489;-92
2022/08/02 03:54:39;;;;;;;0.20;0.20;;;10.70;99.90;;;;;;5013281;28;20462;-92
2022/08/02 03:57:09;;;;;;;0.20;0.20;;;10.80;99.90;;;;;;5018834;28;20501;-93
2022/08/02 03:59:44;;;;;;;0.20;0.20;;;10.90;99.90;;;;;;5022109;28;20188;-92
2022/08/02 04:02:11;;;;;;;0.20;0.20;;;10.80;99.90;;;;;;5017177;28;20453;-92
2022/08/02 04:04:37;;;;;;;0.20;0.20;;;10.90;99.90;;;;;;5012898;28;20520;-92
2022/08/02 04:07:03;;;;;;;0.20;0.20;;;10.90;99.90;;;;;;5021195;28;20829;-92
2022/08/02 04:09:29;;;;;;;0.20;0.20;;;11.10;99.90;;;;;;5032940;28;20208;-93
2022/08/02 04:11:54;;;;;;;0.20;0.20;;;11.00;99.90;;;;;;5018118;28;20438;-93
2022/08/02 04:14:20;;;;;;;0.20;0.20;;;11.00;99.90;;;;;;5008081;28;20632;-93
2022/08/02 04:16:51;;;;;;;0.20;0.20;;;11.10;99.90;;;;;;5019128;28;20929;-92
2022/08/02 04:19:46;;;;;;;0.20;0.20;;;11.10;99.90;;;;;;5017687;28;20203;-93
2022/08/02 04:22:47;;;;;;;0.20;0.20;;;11.10;99.90;;;;;;5023629;28;21892;-92
2022/08/02 04:25:14;;;;;;;0.20;0.20;;;11.10;99.90;;;;;;4949055;28;20465;-93
2022/08/02 04:27:40;;;;;;;0.20;0.20;;;11.20;99.90;;;;;;5010850;28;20440;-92
2022/08/02 04:30:07;;;;;;;0.20;0.20;;;11.10;99.90;;;;;;5017358;28;20780;-93
2022/08/02 04:32:34;;;;;;;0.20;0.20;;;11.10;99.90;;;;;;5017691;28;20450;-92
2022/08/02 04:34:59;;;;;;;0.20;0.20;;;11.00;99.90;;;;;;5000112;28;20490;-93
2022/08/02 04:37:25;;;;;;;0.20;0.20;;;11.20;99.90;;;;;;5025473;28;20451;-92
2022/08/02 04:39:51;;;;;;;0.20;0.20;;;11.30;99.90;;;;;;5031381;28;20190;-91
2022/08/02 04:42:23;;;;;;;0.20;0.20;;;11.40;99.90;;;;;;5029152;28;20828;-93
2022/08/02 04:44:50;;;;;;;0.20;0.20;;;11.40;99.90;;;;;;5021011;28;20208;-92
2022/08/02 04:47:16;;;;;;;0.20;0.20;;;11.30;99.90;;;;;;5024898;28;20449;-92
2022/08/02 04:49:42;;;;;;;0.20;0.20;;;11.30;99.90;;;;;;5018324;28;20496;-93
2022/08/02 04:52:07;;;;;;;0.20;0.20;;;11.50;99.90;;;;;;5028698;28;20442;-92
2022/08/02 04:54:33;;;;;;;0.20;0.20;;;11.40;99.90;;;;;;5005284;28;20275;-93
2022/08/02 04:56:58;;;;;;;0.20;0.20;;;11.50;99.90;;;;;;5024698;28;20194;-92
2022/08/02 04:59:24;;;;;;;0.20;0.20;;;11.50;99.90;;;;;;5001105;28;20575;-92
2022/08/02 05:01:49;;;;;;;0.20;0.20;;;11.50;99.90;;;;;;5017011;28;20188;-92
2022/08/02 05:04:15;;;;;;;0.20;0.20;;;11.50;99.90;;;;;;5006867;28;20190;-92
2022/08/02 05:06:40;;;;;;;0.20;0.20;;;11.50;99.90;;;;;;5019348;28;20239;-93
2022/08/02 05:09:06;;;;;;;0.20;0.20;;;11.50;99.90;;;;;;5018590;28;20192;-93
2022/08/02 05:11:31;;;;;;;0.20;0.20;;;11.40;99.90;;;;;;5019441;28;20199;-91
2022/08/02 05:13:57;;;;;;;0.20;0.20;;;11.50;99.90;;;;;;5027479;28;20184;-92
2022/08/02 05:16:24;;;;;;;0.20;0.20;;;11.60;99.90;;;;;;5021523;28;20224;-90
2022/08/02 05:18:50;;;;;;;0.20;0.20;;;11.70;99.90;;;;;;5025125;28;20511;-90
2022/08/02 05:21:16;;;;;;;0.20;0.20;;;11.70;99.90;;;;;;5019742;28;20546;-92
2022/08/02 05:23:42;;;;;;;0.20;0.20;;;11.80;99.90;;;;;;5030738;28;20180;-93
2022/08/02 05:26:07;;;;;;;0.20;0.20;;;11.90;99.90;;;;;;5020513;28;20176;-91
2022/08/02 05:28:33;;;;;;;0.20;0.20;;;12.00;99.90;;;;;;5031565;28;20195;-90
2022/08/02 05:30:58;;;;;;;0.20;0.20;;;12.20;99.90;;;;;;5030463;28;20226;-90
2022/08/02 05:33:24;;;;;;;0.20;0.20;;;12.20;99.90;;;;;;5008828;28;20191;-91
2022/08/02 05:35:49;;;;;;;0.20;0.20;;;12.40;99.90;;;;;;5003627;28;20215;-92
2022/08/02 05:38:15;;;;;;;0.20;0.20;;;12.50;99.90;;;;;;5021530;28;20184;-91
2022/08/02 05:40:40;;;;;;;0.20;0.20;;;12.60;99.90;;;;;;5022775;28;20264;-89
2022/08/02 05:43:13;;;;;;;0.20;0.20;;;12.70;99.90;;;;;;5013902;28;20271;-90
2022/08/02 05:45:39;;;;;;;0.20;0.20;;;12.80;99.90;;;;;;5013736;28;20199;-89
2022/08/02 05:48:05;;;;;;;0.10;0.10;;;12.80;99.90;;;;;;5027845;28;20853;-91
2022/08/02 05:50:32;;;;;;;0.20;0.20;;;12.90;99.90;;;;;;5020985;28;20446;-92
2022/08/02 05:53:10;;;;;;;0.13;0.13;;;13.00;99.90;;;;;;5015325;28;20188;-91
2022/08/02 05:55:46;;;;;;;0.10;0.10;;;13.10;99.90;;;;;;5010364;28;20492;-89
2022/08/02 05:58:38;;;;;;;0.20;0.20;;;13.10;99.90;;;;;;5031307;28;20498;-90
2022/08/02 06:01:04;;;;;;;0.20;0.20;;;13.10;99.90;;;;;;4982130;28;20482;-90
2022/08/02 06:03:42;;;;;;;0.20;0.20;;;13.20;99.90;;;;;;5047640;28;20909;-90
2022/08/02 06:06:13;;;;;;;0.20;0.20;;;13.30;99.90;;;;;;5015411;28;20447;-90
2022/08/02 06:08:45;;;;;;;0.10;0.10;;;13.40;99.90;;;;;;5013522;28;20475;-91
2022/08/02 06:11:15;;;;;;;0.20;0.20;;;13.50;99.90;;;;;;4998742;28;20450;-91
2022/08/02 06:13:41;;;;;;;0.10;0.10;;;13.60;99.90;;;;;;5027330;28;20442;-90
2022/08/02 06:16:08;;;;;;;0.10;0.10;;;13.70;99.90;;;;;;5008383;28;20529;-88
2022/08/02 06:18:34;;;;;;;0.10;0.10;;;13.70;99.90;;;;;;5030682;28;20557;-91
2022/08/02 06:21:03;;;;;;;0.20;0.20;;;13.70;99.90;;;;;;5029687;28;20457;-91
2022/08/02 06:23:29;;;;;;;0.10;0.10;;;13.70;99.90;;;;;;5039928;28;20441;-90
2022/08/02 06:25:56;;;;;;;0.10;0.10;;;13.90;99.90;;;;;;5028132;28;20461;-92
2022/08/02 06:28:22;;;;;;;0.10;0.10;;;14.00;99.90;;;;;;5027551;28;20957;-91
2022/08/02 06:30:49;;;;;;;0.10;0.10;;;14.10;99.90;;;;;;5023498;28;20869;-88
2022/08/02 06:33:14;;;;;;;0.10;0.10;;;14.10;99.90;;;;;;5021658;28;20442;-90
2022/08/02 06:35:56;;;;;;;0.10;0.10;;;14.10;99.90;;;;;;5024186;28;20488;-91
2022/08/02 06:38:26;;;;;;;0.10;0.10;;;14.20;99.90;;;;;;5017364;28;20188;-92
2022/08/02 06:41:06;;;;;;;0.10;0.10;;;14.30;99.90;;;;;;5022354;28;20929;-89
2022/08/02 06:43:37;;;;;;;0.10;0.10;;;14.40;99.90;;;;;;5017553;28;20451;-90
2022/08/02 06:46:03;;;;;;;0.10;0.10;;;14.40;99.90;;;;;;5016699;28;20442;-89
2022/08/02 06:48:29;;;;;;;0.10;0.10;;;14.60;99.90;;;;;;5032936;28;20965;-91
2022/08/02 06:50:55;;;;;;;0.10;0.10;;;14.40;99.90;;;;;;5006463;28;20192;-91
2022/08/02 06:53:21;;;;;;;0.10;0.10;;;14.60;99.90;;;;;;5029486;28;20520;-90
2022/08/02 06:55:46;;;;;;;0.10;0.10;;;14.60;99.90;;;;;;5002180;28;20699;-91
2022/08/02 06:58:13;;;;;;;0.10;0.10;;;14.60;99.90;;;;;;5023342;28;20222;-91
2022/08/02 07:00:39;;;;;;;0.10;0.10;;;14.60;99.90;;;;;;5019355;28;20211;-90
2022/08/02 07:03:05;;;;;;;0.10;0.10;;;14.70;99.90;;;;;;5027170;28;20442;-93
2022/08/02 07:05:31;;;;;;;0.10;0.10;;;14.90;99.90;;;;;;5007895;28;20528;-93
2022/08/02 07:07:56;;;;;;;0.10;0.10;;;14.70;99.90;;;;;;5035715;28;20306;-87
2022/08/02 07:10:22;;;;;;;0.10;0.10;;;14.80;99.90;;;;;;5009596;28;20216;-89
2022/08/02 07:12:48;;;;;;;0.10;0.10;;;14.90;99.90;;;;;;5000313;28;20665;-89
2022/08/02 07:15:15;;;;;;;0.10;0.10;;;15.10;99.90;;;;;;5033585;28;20211;-87
2022/08/02 07:17:40;;;;;;;0.10;0.10;;;15.20;99.90;;;;;;5022354;28;20219;-88
2022/08/02 07:20:06;;;;;;;0.10;0.10;;;15.10;99.90;;;;;;5035162;28;20512;-94
2022/08/02 07:22:34;;;;;;;0.10;0.10;;;15.30;99.90;;;;;;5002212;28;20271;-93
2022/08/02 07:24:59;;;;;;;0.10;0.10;;;15.60;99.90;;;;;;5035200;28;20530;-92
2022/08/02 07:27:26;;;;;;;0.10;0.10;;;15.80;99.90;;;;;;5036140;28;20182;-89
2022/08/02 07:29:52;;;;;;;0.10;0.10;;;15.70;99.90;;;;;;5034956;28;20183;-93
2022/08/02 07:32:21;;;;;;;0.10;0.10;;;15.60;99.90;;;;;;5032801;28;20474;-88
2022/08/02 07:34:48;;;;;;;0.10;0.10;;;15.60;99.90;;;;;;5007535;28;20600;-89
2022/08/02 07:37:13;;;;;;;0.10;0.10;;;15.50;99.90;;;;;;5028010;28;20527;-87
2022/08/02 07:39:39;;;;;;;0.10;0.10;;;15.40;99.90;;;;;;4997292;28;20990;-89
2022/08/02 07:42:04;;;;;;;0.10;0.10;;;15.60;99.90;;;;;;5029819;28;20192;-90
2022/08/02 07:44:33;;;;;;;0.10;0.10;;;15.70;99.90;;;;;;5032068;28;20203;-91
2022/08/02 07:47:00;;;;;;;0.10;0.10;;;15.80;99.90;;;;;;5029276;28;20223;-92
2022/08/02 07:49:26;;;;;;;0.10;0.10;;;16.00;99.90;;;;;;5033032;28;20432;-91
2022/08/02 07:51:51;;;;;;;0.10;0.10;;;15.90;99.90;;;;;;5003348;28;20538;-92
2022/08/02 07:54:17;;;;;;;0.10;0.10;;;16.20;99.90;;;;;;5019461;28;20186;-92
2022/08/02 07:56:42;;;;;;;0.10;0.10;;;16.30;99.90;;;;;;5033173;28;20211;-90
2022/08/02 07:59:09;;;;;;;0.10;0.10;;;16.40;99.90;;;;;;5020224;28;20216;-90
2022/08/02 08:01:35;;;;;;;0.10;0.10;;;16.50;99.90;;;;;;5022388;28;20176;-89
2022/08/02 08:04:01;;;;;;;0.10;0.10;;;16.30;99.90;;;;;;5018813;28;20435;-90
2022/08/02 08:06:26;;;;;;;0.10;0.10;;;16.40;99.90;;;;;;5029328;28;20462;-91
2022/08/02 08:08:52;;;;;;;0.10;0.10;;;16.50;99.90;;;;;;5018449;28;20270;-88
2022/08/02 08:11:17;;;;;;;0.10;0.10;;;16.70;99.90;;;;;;5017331;28;20184;-91
2022/08/02 08:13:43;;;;;;;0.10;0.10;;;16.80;99.90;;;;;;5029205;28;20325;-93
2022/08/02 08:16:08;;;;;;;0.10;0.10;;;16.80;99.90;;;;;;5034953;28;20733;-90
2022/08/02 08:18:34;;;;;;;0.10;0.10;;;17.00;99.90;;;;;;5024371;28;20183;-92
2022/08/02 08:21:00;;;;;;;0.10;0.10;;;17.40;99.90;;;;;;5013016;28;20671;-89
2022/08/02 08:23:25;;;;;;;0.10;0.10;;;17.40;99.90;;;;;;5014713;28;20183;-91
2022/08/02 08:25:51;;;;;;;0.10;0.10;;;17.30;99.90;;;;;;5017833;28;20563;-89
2022/08/02 08:28:16;;;;;;;0.10;0.10;;;17.50;99.90;;;;;;5018563;28;20241;-92
2022/08/02 08:30:42;;;;;;;0.10;0.10;;;17.50;99.90;;;;;;5026391;28;20809;-93
2022/08/02 08:33:08;;;;;;;0.10;0.10;;;17.90;99.90;;;;;;5029619;28;20180;-90
2022/08/02 08:35:34;;;;;;;0.10;0.10;;;18.20;99.90;;;;;;5018669;28;20227;-84
2022/08/02 08:37:59;;;;;;;0.10;0.10;;;18.00;99.90;;;;;;5030969;28;20227;-93
2022/08/02 08:40:25;;;;;;;0.10;0.10;;;17.90;99.90;;;;;;5030975;28;20458;-94
2022/08/02 08:42:51;;;;;;;0.10;0.10;;;18.00;99.90;;;;;;5032124;28;20266;-87
2022/08/02 08:45:16;;;;;;;0.10;0.10;;;18.20;99.90;;;;;;5031831;28;20571;-90
2022/08/02 08:47:44;;;;;;;0.10;0.10;;;18.20;99.90;;;;;;4996143;28;20180;-87
2022/08/02 08:50:22;;;;;;;0.10;0.10;;;18.50;99.90;;;;;;4999632;28;20188;-90
2022/08/02 08:53:00;;;;;;;0.10;0.10;;;18.60;99.90;;;;;;5021053;28;20840;-86
2022/08/02 08:55:27;;;;;;;0.10;0.10;;;18.70;99.90;;;;;;5013511;28;20564;-88
2022/08/02 08:57:54;;;;;;;0.10;0.10;;;19.00;99.90;;;;;;5016099;28;20918;-87
2022/08/02 09:00:19;;;;;;;0.10;0.10;;;19.00;99.90;;;;;;5000925;28;20455;-89
2022/08/02 09:02:45;;;;;;;0.10;0.10;;;19.30;99.90;;;;;;5010364;28;20514;-89
2022/08/02 09:05:13;;;;;;;0.10;0.10;;;19.00;99.90;;;;;;5006873;28;20204;-86
2022/08/02 09:07:41;;;;;;;0.10;0.10;;;19.00;99.90;;;;;;5027951;28;20598;-86
2022/08/02 09:10:39;;;;;;;0.10;0.10;;;19.10;99.90;;;;;;5006778;28;20447;-86
2022/08/02 09:13:31;;;;;;;0.10;0.10;;;19.10;99.90;;;;;;5025892;28;20426;-87
2022/08/02 09:16:03;;;;;;;0.10;0.10;;;19.70;99.90;;;;;;5022359;28;20529;-87
2022/08/02 09:18:33;;;;;;;0.10;0.10;;;19.60;99.90;;;;;;4997497;28;20467;-87
2022/08/02 09:21:01;;;;;;;0.10;0.10;;;19.70;99.90;;;;;;5051403;28;20430;-87
2022/08/02 09:23:40;;;;;;;0.10;0.10;;;20.00;99.90;;;;;;5025558;28;20801;-87
2022/08/02 09:26:14;;;;;;;0.10;0.10;;;20.30;99.90;;;;;;5012687;28;21075;-87
2022/08/02 09:28:43;;;;;;;0.10;0.10;;;20.40;99.90;;;;;;5013444;28;20441;-86
2022/08/02 09:31:17;;;;;;;0.10;0.00;;;20.00;99.90;;;;;;5002399;28;20554;-86
2022/08/02 09:33:44;;;;;;;0.10;0.10;;;20.20;99.90;;;;;;5023873;28;20442;-87
2022/08/02 09:36:15;;;;;;;0.10;0.00;;;20.60;99.90;;;;;;5017099;28;20489;-87
2022/08/02 09:38:56;;;;;;;0.10;0.10;;;21.00;99.90;;;;;;5012720;28;20801;-86
2022/08/02 09:41:27;;;;;;;0.10;0.10;;;20.20;99.90;;;;;;5027701;28;20446;-87
2022/08/02 09:43:53;;;;;;;0.10;0.00;;;20.40;99.90;;;;;;5001885;28;20962;-87
2022/08/02 09:46:30;;;;;;;0.10;0.00;;;20.90;99.90;;;;;;5022608;28;20459;-89
2022/08/02 09:48:56;;;;;;;0.10;0.00;;;20.50;99.90;;;;;;5009770;28;20436;-88
2022/08/02 09:51:22;;;;;;;0.10;0.00;;;20.60;99.90;;;;;;5010031;28;20542;-88
2022/08/02 09:53:50;;;;;;;0.10;0.10;;;21.00;99.90;;;;;;4996771;28;20447;-86
2022/08/02 09:56:17;;;;;;;0.10;0.10;;;20.80;99.90;;;;;;5013898;28;20223;-89
2022/08/02 09:58:43;;;;;;;0.10;0.00;;;20.70;99.90;;;;;;5039785;28;20497;-87
2022/08/02 10:01:09;;;;;;;0.10;0.10;;;20.70;99.90;;;;;;5016440;28;20451;-88
2022/08/02 10:03:34;;;;;;;0.10;0.00;;;20.90;99.90;;;;;;5044534;28;20503;-88
2022/08/02 10:06:00;;;;;;;0.10;0.00;;;21.00;99.90;;;;;;5027658;28;20207;-89
2022/08/02 10:08:27;;;;;;;0.10;0.00;;;20.70;99.90;;;;;;5041927;28;20245;-88
2022/08/02 10:10:59;;;;;;;0.10;0.00;;;21.00;99.90;;;;;;5015847;28;20451;-90
2022/08/02 10:13:35;;;;;;;0.10;0.00;;;21.70;99.90;;;;;;5020593;28;20450;-90
2022/08/02 10:16:02;;;;;;;0.10;0.10;;;22.20;99.90;;;;;;5011809;28;20473;-88
2022/08/02 10:18:28;;;;;;;0.10;0.00;;;22.20;99.90;;;;;;5023185;28;20450;-88
2022/08/02 10:20:55;;;;;;;0.10;0.00;;;22.40;99.90;;;;;;5031348;28;20805;-90
2022/08/02 10:23:24;;;;;;;0.10;0.00;;;23.00;99.90;;;;;;5011669;28;20195;-87
2022/08/02 10:25:52;;;;;;;0.10;0.00;;;23.30;99.90;;;;;;5006534;28;20447;-89
2022/08/02 10:28:18;;;;;;;0.10;0.00;;;23.50;99.90;;;;;;5017204;28;20447;-87
2022/08/02 10:30:47;;;;;;;0.10;0.00;;;23.20;99.90;;;;;;5025910;28;20503;-87
2022/08/02 10:33:16;;;;;;;0.10;0.00;;;22.80;99.90;;;;;;5011843;28;20451;-88
2022/08/02 10:35:42;;;;;;;0.10;0.00;;;22.60;99.90;;;;;;5017293;28;20961;-87
2022/08/02 10:38:10;;;;;;;0.10;0.00;;;22.90;99.90;;;;;;5039407;28;20459;-87
2022/08/02 10:40:42;;;;;;;0.10;0.00;;;23.30;99.90;;;;;;5032732;28;21383;-89
2022/08/02 10:43:07;;;;;;;0.10;0.00;;;23.20;99.90;;;;;;5028446;28;20532;-88
2022/08/02 10:45:33;;;;;;;0.10;0.07;;;23.90;99.90;;;;;;5025191;28;20534;-91
2022/08/02 10:48:04;;;;;;;0.10;0.00;;;24.50;99.90;;;;;;5017013;28;20184;-89
2022/08/02 10:50:45;;;;;;;0.10;0.00;;;24.60;99.90;;;;;;5033529;28;20440;-89
2022/08/02 10:53:33;;;;;;;0.10;0.00;;;24.40;99.90;;;;;;5036705;28;21313;-90
2022/08/02 10:56:01;;;;;;;0.10;0.00;;;24.90;99.90;;;;;;5025615;28;20840;-88
2022/08/02 10:58:30;;;;;;;0.10;0.00;;;25.00;99.90;;;;;;5019943;28;20859;-88
2022/08/02 11:00:57;;;;;;;0.10;0.00;;;25.10;99.90;;;;;;5021890;28;20527;-88
2022/08/02 11:03:36;;;;;;;0.10;0.00;;;24.70;99.90;;;;;;5004960;28;21034;-90
2022/08/02 11:06:12;;;;;;;0.10;0.00;;;25.10;99.90;;;;;;5016518;28;20946;-88
2022/08/02 11:08:39;;;;;;;0.10;0.00;;;25.50;98.60;;;;;;5032349;28;20941;-90
2022/08/02 11:11:07;;;;;;;0.10;0.00;;;25.40;97.10;;;;;;5022119;28;20445;-90
2022/08/02 11:13:59;;;;;;;0.10;0.00;;;26.00;97.10;;;;;;5028927;28;20445;-91
2022/08/02 11:16:56;;;;;;;0.10;0.00;;;25.70;98.40;;;;;;5034030;28;20492;-90
2022/08/02 11:19:23;;;;;;;0.10;0.00;;;26.50;97.30;;;;;;5054028;28;20968;-89
2022/08/02 11:22:03;;;;;;;0.10;0.00;;;25.80;97.20;;;;;;5038486;28;20446;-89
2022/08/02 11:24:31;;;;;;;0.10;0.00;;;26.50;98.90;;;;;;5017345;28;20419;-91
2022/08/02 11:27:01;;;;;;;0.10;0.00;;;26.60;95.30;;;;;;5030994;28;20441;-87
2022/08/02 11:29:40;;;;;;;0.10;0.00;;;27.00;97.30;;;;;;5037495;28;20453;-87
2022/08/02 11:32:07;;;;;;;0.10;0.00;;;27.20;94.20;;;;;;5029517;28;20449;-89
2022/08/02 11:34:33;;;;;;;0.10;0.00;;;27.20;93.10;;;;;;5016217;28;20450;-89
2022/08/02 11:36:59;;;;;;;0.10;0.00;;;27.60;93.90;;;;;;5030446;28;20453;-93
2022/08/02 11:39:25;;;;;;;0.10;0.00;;;27.90;93.40;;;;;;5017176;28;20223;-90
2022/08/02 11:41:56;;;;;;;0.10;0.00;;;28.10;92.30;;;;;;5035403;28;20186;-90
2022/08/02 11:44:22;;;;;;;0.10;0.00;;;27.80;92.70;;;;;;5018769;28;20188;-92
2022/08/02 11:47:01;;;;;;;0.10;0.00;;;27.70;93.80;;;;;;5019635;28;20453;-90
2022/08/02 11:49:27;;;;;;;0.10;0.00;;;27.70;95.10;;;;;;5030531;28;20437;-88
2022/08/02 11:52:05;;;;;;;0.10;0.00;;;27.60;90.50;;;;;;5024047;28;20558;-90
2022/08/02 11:54:39;;;;;;;0.10;0.00;;;27.20;90.70;;;;;;5022514;28;20949;-91
2022/08/02 11:57:19;;;;;;;0.10;0.00;;;27.10;93.50;;;;;;5033266;28;20566;-91
2022/08/02 11:59:47;;;;;;;0.10;0.00;;;27.60;92.00;;;;;;5028481;28;20434;-90
2022/08/02 12:02:15;;;;;;;0.10;0.00;;;27.40;93.20;;;;;;4994291;28;21768;-92
2022/08/02 12:04:40;;;;;;;0.10;0.00;;;26.90;92.30;;;;;;5032929;28;20433;-93
2022/08/02 12:07:06;;;;;;;0.10;0.00;;;27.10;92.60;;;;;;5028376;28;20847;-93
2022/08/02 12:09:33;;;;;;;0.10;0.00;;;27.20;92.30;;;;;;5024593;28;20263;-92
2022/08/02 12:12:00;;;;;;;0.10;0.00;;;27.00;91.70;;;;;;5027612;28;20451;-91
2022/08/02 12:14:30;;;;;;;0.10;0.00;;;27.00;87.70;;;;;;5034223;28;20492;-88
2022/08/02 12:19:41;;;;;;;0.10;0.00;;;26.70;91.10;;;;;;5020047;28;20457;-92
2022/08/02 12:22:17;;;;;;;0.00;0.00;;;26.60;91.00;;;;;;5007540;28;20441;-92
2022/08/02 12:24:51;;;;;;;0.00;0.00;;;26.70;90.80;;;;;;5032486;28;20270;-91
2022/08/02 12:27:36;;;;;;;0.00;0.00;;;26.40;90.30;;;;;;5034367;28;20480;-91
2022/08/02 12:30:08;;;;;;;0.00;0.00;;;26.70;89.80;;;;;;5028738;28;20970;-93
2022/08/02 12:32:34;;;;;;;0.00;0.00;;;26.10;85.90;;;;;;5037111;28;20477;-91
2022/08/02 12:35:07;;;;;;;0.00;0.00;;;26.30;92.20;;;;;;5018560;28;20479;-89
2022/08/02 12:37:33;;;;;;;0.00;0.00;;;27.20;88.60;;;;;;5003237;28;20438;-89
2022/08/02 12:40:28;;;;;;;0.00;0.00;;;27.50;84.40;;;;;;5019394;28;20946;-89
2022/08/02 12:43:00;;;;;;;0.00;0.00;;;27.20;84.70;;;;;;5025588;28;20442;-90
2022/08/02 12:45:28;;;;;;;0.10;0.00;;;27.40;88.20;;;;;;5016702;28;20451;-88
2022/08/02 12:47:57;;;;;;;0.10;0.00;;;27.50;88.90;;;;;;5015929;28;20438;-93
2022/08/02 12:50:28;;;;;;;0.10;0.00;;;26.70;85.40;;;;;;4997579;28;20749;-92
2022/08/02 12:53:05;;;;;;;0.10;0.00;;;26.40;89.30;;;;;;5007358;28;20463;-95
2022/08/02 12:55:32;;;;;;;0.10;0.00;;;26.20;87.00;;;;;;5020632;28;20620;-89
2022/08/02 12:57:59;;;;;;;0.10;0.00;;;26.40;87.80;;;;;;5030468;28;20442;-91
2022/08/02 13:00:30;;;;;;;0.10;0.00;;;26.10;89.70;;;;;;5024256;28;20462;-94
2022/08/02 13:02:57;;;;;;;0.10;0.00;;;26.50;88.50;;;;;;5017565;28;20454;-94